Time;durP1;ratioP1;P1;durP2;ratioP2;P2;SDS_P1;SDS_P2;PMS_P1;PMS_P2;Temp;Humidity;BMP_temperature;BMP_pressure;BME280_temperature;BME280_humidity;BME280_pressure;Samples;Min_cycle;Max_cycle;Signal;HPM_P1;HPM_P2
2022/06/23 00:00:31;;;;;;;10.70;7.78;;;18.00;99.90;;;;;;5067104;28;20455;-83
2022/06/23 00:03:01;;;;;;;7.72;6.10;;;18.00;99.90;;;;;;5085596;28;20051;-82
2022/06/23 00:05:36;;;;;;;12.43;7.50;;;18.00;99.90;;;;;;5085869;28;20502;-82
2022/06/23 00:08:12;;;;;;;14.93;7.57;;;18.00;99.90;;;;;;5084872;28;20044;-83
2022/06/23 00:10:53;;;;;;;8.82;6.55;;;17.90;99.90;;;;;;5085438;28;20032;-82
2022/06/23 00:13:35;;;;;;;6.68;5.22;;;17.90;99.90;;;;;;5086373;28;20052;-82
2022/06/23 00:16:04;;;;;;;11.52;7.55;;;18.00;99.90;;;;;;5067107;28;20430;-81
2022/06/23 00:18:37;;;;;;;14.98;8.43;;;17.90;99.90;;;;;;5066736;28;20036;-82
2022/06/23 00:21:23;;;;;;;30.13;7.72;;;17.90;99.90;;;;;;5085773;28;20052;-82
2022/06/23 00:24:25;;;;;;;11.85;8.02;;;17.90;99.90;;;;;;5087819;28;20048;-82
2022/06/23 00:26:55;;;;;;;;;;;17.80;99.90;;;;;;5070833;28;20130;-81
2022/06/23 00:29:24;;;;;;;;;;;17.80;99.90;;;;;;5055251;28;19931;-82
2022/06/23 00:31:58;;;;;;;16.77;7.40;;;17.80;99.90;;;;;;5089537;28;19923;-82
2022/06/23 00:34:39;;;;;;;11.75;6.78;;;17.80;99.90;;;;;;5054403;28;20047;-82
2022/06/23 00:37:22;;;;;;;9.23;6.85;;;17.80;99.90;;;;;;5070283;28;20072;-82
2022/06/23 00:40:17;;;;;;;11.15;8.80;;;17.80;99.90;;;;;;5071109;28;20071;-81
2022/06/23 00:43:13;;;;;;;17.50;8.88;;;17.80;99.90;;;;;;5070141;28;20806;-82
2022/06/23 00:46:00;;;;;;;14.40;8.70;;;17.80;99.90;;;;;;5036572;28;20048;-81
2022/06/23 01:12:03;;;;;;;10.43;7.53;;;17.70;99.90;;;;;;5050614;28;20036;-81
2022/06/23 01:16:42;;;;;;;14.02;7.50;;;17.70;99.90;;;;;;5069283;28;20052;-81
2022/06/23 01:20:38;;;;;;;10.93;7.13;;;17.80;99.90;;;;;;5071863;28;20045;-81
2022/06/23 01:28:24;;;;;;;19.70;8.10;;;17.70;99.90;;;;;;5068954;28;20091;-81
2022/06/23 01:31:31;;;;;;;15.23;8.02;;;17.70;99.90;;;;;;5053279;28;20065;-81
2022/06/23 01:39:29;;;;;;;8.88;7.38;;;17.70;99.90;;;;;;5065993;28;20043;-81
2022/06/23 01:42:24;;;;;;;10.85;7.05;;;17.60;99.90;;;;;;5068098;28;20040;-81
2022/06/23 01:45:17;;;;;;;11.57;7.30;;;17.60;99.90;;;;;;5053334;28;20052;-81
2022/06/23 01:51:54;;;;;;;9.38;8.05;;;17.50;99.90;;;;;;5067336;28;20041;-81
2022/06/23 01:54:40;;;;;;;15.05;9.38;;;17.40;99.90;;;;;;5067402;28;20049;-81
2022/06/23 01:57:35;;;;;;;14.90;7.43;;;17.40;99.90;;;;;;5068772;28;20052;-81
2022/06/23 02:00:14;;;;;;;;;;;17.50;99.90;;;;;;5067501;28;20051;-81
2022/06/23 02:22:19;;;;;;;11.65;7.63;;;17.60;99.90;;;;;;5050841;28;20044;-80
2022/06/23 02:46:13;;;;;;;15.82;8.70;;;17.70;99.90;;;;;;5034156;28;20052;-81
2022/06/23 02:50:19;;;;;;;12.32;8.38;;;17.70;99.90;;;;;;5029842;28;20044;-81
2022/06/23 02:53:33;;;;;;;22.25;10.25;;;17.70;99.90;;;;;;5050674;28;20040;-81
2022/06/23 02:56:44;;;;;;;17.20;8.70;;;17.70;99.90;;;;;;5072532;28;20410;-81
2022/06/23 02:59:36;;;;;;;19.98;8.00;;;17.60;99.90;;;;;;5066261;28;20040;-81
2022/06/23 03:03:01;;;;;;;8.57;7.38;;;17.60;99.90;;;;;;5065993;28;20041;-81
2022/06/23 03:07:14;;;;;;;11.85;7.22;;;17.60;99.90;;;;;;5049748;28;20068;-81
2022/06/23 03:24:31;;;;;;;13.65;10.88;;;17.60;99.90;;;;;;5083597;28;20047;-81
2022/06/23 03:28:53;;;;;;;16.40;10.73;;;17.60;99.90;;;;;;5068551;28;20051;-81
2022/06/23 03:32:46;;;;;;;12.35;9.38;;;17.60;99.90;;;;;;5085245;28;20490;-81
2022/06/23 03:35:50;;;;;;;10.70;9.23;;;17.60;99.90;;;;;;5078602;28;20044;-81
2022/06/23 03:42:11;;;;;;;13.45;8.98;;;17.60;99.90;;;;;;5085888;28;20800;-81
2022/06/23 03:44:55;;;;;;;12.68;8.43;;;17.50;99.90;;;;;;5014651;28;20040;-81
2022/06/23 03:47:51;;;;;;;14.93;9.80;;;17.50;99.90;;;;;;5063075;28;20033;-81
2022/06/23 03:50:38;;;;;;;11.18;9.10;;;17.50;99.90;;;;;;5069778;28;20812;-81
2022/06/23 03:54:01;;;;;;;9.75;8.70;;;17.50;99.90;;;;;;5086184;28;20051;-81
2022/06/23 03:57:10;;;;;;;16.33;11.90;;;17.40;99.90;;;;;;5047222;28;20534;-81
2022/06/23 04:00:19;;;;;;;22.05;8.90;;;17.40;99.90;;;;;;5078323;28;20043;-81
2022/06/23 04:03:17;;;;;;;20.35;7.60;;;17.50;99.90;;;;;;5069318;28;20040;-81
2022/06/23 04:05:59;;;;;;;11.43;6.78;;;17.60;99.90;;;;;;5069725;28;20040;-81
2022/06/23 04:09:07;;;;;;;13.43;7.50;;;17.60;99.90;;;;;;5049838;28;20045;-81
2022/06/23 04:12:06;;;;;;;11.32;7.78;;;17.60;99.90;;;;;;5051128;28;20047;-81
2022/06/23 04:14:59;;;;;;;26.95;8.80;;;17.60;99.90;;;;;;5052938;28;20032;-81
2022/06/23 04:17:53;;;;;;;14.55;7.63;;;17.60;99.90;;;;;;5071104;28;20044;-81
2022/06/23 04:20:44;;;;;;;12.20;7.22;;;17.60;99.90;;;;;;5023909;28;20048;-81
2022/06/23 04:23:42;;;;;;;16.17;10.82;;;17.60;99.90;;;;;;5069220;28;20041;-81
2022/06/23 04:26:36;;;;;;;10.77;7.93;;;17.70;99.90;;;;;;5068523;28;20047;-81
2022/06/23 04:29:26;;;;;;;21.75;9.00;;;17.70;99.90;;;;;;5069189;28;20055;-82
2022/06/23 04:32:13;;;;;;;10.68;6.30;;;17.70;99.90;;;;;;5068871;28;20070;-81
2022/06/23 04:35:05;;;;;;;19.00;8.95;;;17.70;99.90;;;;;;5076775;28;20087;-80
2022/06/23 04:38:12;;;;;;;9.43;6.57;;;17.60;99.90;;;;;;5089180;28;20052;-81
2022/06/23 04:40:43;;;;;;;15.20;7.00;;;17.60;99.90;;;;;;5028576;28;20415;-80
2022/06/23 04:43:36;;;;;;;10.43;7.55;;;17.70;99.90;;;;;;5087929;28;20051;-79
2022/06/23 04:46:12;;;;;;;8.50;6.65;;;17.50;99.90;;;;;;5088811;28;20493;-79
2022/06/23 04:48:46;;;;;;;11.20;7.65;;;17.60;99.90;;;;;;5089036;28;20047;-80
2022/06/23 04:51:26;;;;;;;20.17;7.63;;;17.60;99.90;;;;;;5085204;28;20561;-78
2022/06/23 04:54:01;;;;;;;9.25;5.32;;;17.70;99.90;;;;;;5089550;28;20486;-79
2022/06/23 04:56:35;;;;;;;9.93;6.43;;;17.70;99.90;;;;;;5087845;28;20048;-78
2022/06/23 04:59:13;;;;;;;15.30;6.10;;;17.70;99.90;;;;;;5088694;28;20039;-80
2022/06/23 05:01:46;;;;;;;17.33;4.82;;;17.70;99.90;;;;;;5088705;28;20394;-79
2022/06/23 05:04:19;;;;;;;11.80;4.25;;;17.70;99.90;;;;;;5088090;28;20044;-78
2022/06/23 05:06:54;;;;;;;12.50;4.90;;;17.70;99.90;;;;;;5088431;28;20050;-80
2022/06/23 05:09:28;;;;;;;8.93;4.78;;;17.70;99.90;;;;;;5088020;28;20055;-78
2022/06/23 05:12:06;;;;;;;6.43;4.18;;;17.80;99.90;;;;;;5088114;28;20059;-79
2022/06/23 05:14:50;;;;;;;10.50;6.55;;;17.90;99.90;;;;;;5088209;28;20044;-78
2022/06/23 05:17:24;;;;;;;18.23;5.45;;;17.90;99.90;;;;;;5088824;28;20044;-79
2022/06/23 05:19:58;;;;;;;7.78;4.70;;;17.90;99.90;;;;;;5079096;28;20055;-78
2022/06/23 05:22:36;;;;;;;15.45;6.28;;;17.90;99.90;;;;;;5067764;28;20049;-79
2022/06/23 05:25:25;;;;;;;8.32;4.53;;;17.90;99.90;;;;;;5068526;28;20045;-77
2022/06/23 05:27:53;;;;;;;11.85;5.50;;;17.90;99.90;;;;;;5067840;28;20048;-77
2022/06/23 05:30:32;;;;;;;9.82;3.95;;;17.80;99.90;;;;;;5068009;28;20048;-80
2022/06/23 05:33:04;;;;;;;10.32;4.95;;;17.80;99.90;;;;;;5032576;28;20059;-79
2022/06/23 05:35:42;;;;;;;7.45;3.55;;;18.00;99.90;;;;;;5067610;28;20067;-80
2022/06/23 05:38:51;;;;;;;23.00;5.57;;;18.20;99.90;;;;;;5083582;28;20403;-80
2022/06/23 05:41:27;;;;;;;9.35;5.40;;;18.50;99.90;;;;;;5087709;28;20055;-79
2022/06/23 05:43:57;;;;;;;10.77;3.97;;;18.60;99.90;;;;;;5087627;28;20422;-79
2022/06/23 05:46:28;;;;;;;5.75;4.25;;;18.80;99.90;;;;;;5088136;28;20044;-79
2022/06/23 05:49:04;;;;;;;8.57;4.75;;;18.90;99.90;;;;;;5087713;28;20070;-79
2022/06/23 05:51:46;;;;;;;7.47;4.43;;;18.80;99.90;;;;;;5087465;28;20505;-80
2022/06/23 05:54:28;;;;;;;6.40;4.47;;;18.80;99.90;;;;;;5087605;28;20044;-79
2022/06/23 05:57:04;;;;;;;7.53;4.68;;;18.80;99.90;;;;;;5088153;28;20048;-80
2022/06/23 06:00:09;;;;;;;8.63;4.57;;;18.90;99.90;;;;;;5087026;28;20047;-79
2022/06/23 06:02:51;;;;;;;7.60;3.15;;;19.00;99.90;;;;;;5086970;28;20118;-79
2022/06/23 06:05:34;;;;;;;7.25;4.40;;;19.10;99.90;;;;;;5087776;28;20040;-79
2022/06/23 06:08:12;;;;;;;8.85;4.60;;;19.20;99.90;;;;;;5086365;28;20063;-77
2022/06/23 06:10:41;;;;;;;7.75;3.65;;;19.10;99.90;;;;;;5086550;28;20044;-79
2022/06/23 06:13:21;;;;;;;20.25;5.20;;;19.20;99.90;;;;;;5087742;28;20060;-79
2022/06/23 06:15:57;;;;;;;6.05;3.97;;;19.30;99.90;;;;;;5087288;28;20043;-80
2022/06/23 06:18:37;;;;;;;7.70;4.28;;;19.30;99.90;;;;;;5087058;28;20674;-79
2022/06/23 06:21:09;;;;;;;11.68;4.22;;;19.20;99.90;;;;;;5067054;28;20060;-79
2022/06/23 06:23:42;;;;;;;30.92;6.00;;;19.40;99.90;;;;;;5066865;28;20391;-78
2022/06/23 06:26:13;;;;;;;16.70;5.35;;;19.50;99.90;;;;;;5066841;28;20055;-85
2022/06/23 06:28:40;;;;;;;8.95;4.38;;;19.50;99.90;;;;;;5066911;28;20036;-79
2022/06/23 06:31:33;;;;;;;11.55;5.32;;;19.70;99.90;;;;;;5066309;28;20431;-79
2022/06/23 06:34:18;;;;;;;10.60;4.70;;;19.90;99.90;;;;;;5066394;28;20040;-79
2022/06/23 06:36:52;;;;;;;12.70;4.30;;;19.90;99.90;;;;;;5051286;28;20052;-79
2022/06/23 06:39:37;;;;;;;6.00;3.63;;;19.90;99.90;;;;;;5085589;28;20816;-80
2022/06/23 06:42:25;;;;;;;8.95;3.33;;;20.10;99.90;;;;;;5066859;28;20056;-80
2022/06/23 06:45:10;;;;;;;4.15;3.78;;;20.20;99.90;;;;;;5049165;28;20048;-79
2022/06/23 06:47:40;;;;;;;7.68;3.95;;;20.30;99.90;;;;;;5066018;28;20040;-78
2022/06/23 06:50:19;;;;;;;9.07;4.45;;;20.30;99.90;;;;;;5066016;28;20841;-79
2022/06/23 06:52:49;;;;;;;9.57;4.25;;;20.50;99.90;;;;;;5049120;28;20044;-79
2022/06/23 06:55:34;;;;;;;5.43;4.65;;;20.50;99.90;;;;;;5047881;28;20045;-79
2022/06/23 06:58:11;;;;;;;7.85;4.18;;;20.70;99.90;;;;;;5065857;28;20049;-79
2022/06/23 07:01:02;;;;;;;10.15;4.05;;;20.60;99.90;;;;;;5066360;28;20064;-79
2022/06/23 07:03:31;;;;;;;6.40;2.83;;;20.70;99.90;;;;;;5065872;28;20044;-78
2022/06/23 07:06:08;;;;;;;10.65;6.00;;;20.80;99.90;;;;;;5066091;28;20052;-79
2022/06/23 07:08:43;;;;;;;9.00;3.83;;;20.90;99.90;;;;;;5047088;28;20044;-79
2022/06/23 07:11:23;;;;;;;3.58;2.97;;;21.00;99.90;;;;;;5065564;28;20044;-80
2022/06/23 07:14:12;;;;;;;7.28;4.13;;;21.10;99.90;;;;;;5066576;28;20567;-80
2022/06/23 07:17:04;;;;;;;12.23;4.57;;;21.00;99.90;;;;;;5059225;28;20051;-82
2022/06/23 07:19:40;;;;;;;8.93;4.93;;;21.00;99.90;;;;;;5077034;28;21229;-80
2022/06/23 07:22:14;;;;;;;12.77;5.65;;;20.80;99.90;;;;;;5084237;28;20134;-80
2022/06/23 07:25:03;;;;;;;8.73;4.63;;;20.90;99.90;;;;;;5074468;28;20048;-80
2022/06/23 07:27:58;;;;;;;13.63;4.45;;;21.00;99.90;;;;;;5085159;28;20491;-81
2022/06/23 07:30:37;;;;;;;23.52;7.78;;;21.40;99.90;;;;;;5085584;28;20391;-80
2022/06/23 07:33:12;;;;;;;4.68;3.42;;;21.50;99.90;;;;;;5085572;28;20060;-80
2022/06/23 07:35:54;;;;;;;13.93;4.72;;;21.70;99.90;;;;;;5085087;28;20047;-80
2022/06/23 07:38:38;;;;;;;13.40;5.13;;;21.50;99.90;;;;;;5085233;28;20051;-80
2022/06/23 07:41:30;;;;;;;7.57;4.78;;;21.50;99.90;;;;;;5085814;28;20048;-80
2022/06/23 07:44:09;;;;;;;6.88;4.18;;;21.40;99.90;;;;;;5067750;28;20051;-80
2022/06/23 07:46:38;;;;;;;9.25;3.95;;;21.50;99.90;;;;;;5085665;28;20044;-81
2022/06/23 07:49:09;;;;;;;15.82;5.97;;;21.70;99.90;;;;;;5085587;28;20052;-80
2022/06/23 07:51:44;;;;;;;16.00;5.97;;;21.80;99.90;;;;;;5085252;28;20044;-80
2022/06/23 07:54:16;;;;;;;8.13;4.18;;;22.00;99.90;;;;;;5085540;28;20062;-80
2022/06/23 07:56:45;;;;;;;9.60;4.60;;;22.20;99.90;;;;;;5085598;28;20055;-80
2022/06/23 07:59:16;;;;;;;11.85;4.43;;;22.30;99.90;;;;;;5085039;28;20502;-80
2022/06/23 08:01:47;;;;;;;9.73;5.25;;;22.30;99.90;;;;;;5070318;28;20055;-81
2022/06/23 08:04:23;;;;;;;12.50;4.00;;;22.30;99.90;;;;;;5083206;28;20052;-80
2022/06/23 08:06:51;;;;;;;6.25;4.38;;;22.20;99.90;;;;;;5054675;28;20048;-80
2022/06/23 08:09:29;;;;;;;15.57;4.78;;;22.40;99.90;;;;;;5065878;28;20052;-79
2022/06/23 08:16:49;;;;;;;7.63;3.08;;;22.60;99.90;;;;;;5067303;28;20058;-78
2022/06/23 08:17:44;;;;;;;10.30;4.40;;;22.80;99.90;;;;;;5070932;28;20055;-80
2022/06/23 08:20:15;;;;;;;14.60;4.05;;;22.70;99.90;;;;;;5079842;28;20082;-80
2022/06/23 08:22:45;;;;;;;4.82;3.65;;;22.60;99.90;;;;;;5085059;28;20056;-80
2022/06/23 08:25:16;;;;;;;4.43;3.13;;;22.70;99.90;;;;;;5085442;28;20498;-80
2022/06/23 08:27:55;;;;;;;9.13;3.22;;;22.90;99.90;;;;;;5079802;28;20348;-80
2022/06/23 08:30:24;;;;;;;12.25;3.70;;;22.90;99.90;;;;;;5065357;28;20048;-80
2022/06/23 08:32:54;;;;;;;18.30;4.65;;;22.90;99.90;;;;;;5079469;28;20055;-80
2022/06/23 08:35:31;;;;;;;11.65;3.72;;;23.00;99.90;;;;;;5084915;28;20044;-79
2022/06/23 08:38:02;;;;;;;10.65;4.93;;;22.90;99.90;;;;;;5085370;28;20688;-79
2022/06/23 08:40:56;;;;;;;3.47;2.95;;;22.70;99.90;;;;;;5084079;28;20059;-80
2022/06/23 08:43:30;;;;;;;6.45;3.78;;;22.60;99.90;;;;;;5083240;28;20059;-78
2022/06/23 08:46:35;;;;;;;13.43;4.22;;;22.60;99.90;;;;;;5088812;28;20044;-79
2022/06/23 08:49:35;;;;;;;7.57;3.90;;;22.50;99.90;;;;;;5067393;28;20059;-79
2022/06/23 08:52:22;;;;;;;5.25;3.00;;;22.60;99.90;;;;;;5088615;28;20047;-79
2022/06/23 08:54:56;;;;;;;7.45;3.15;;;22.60;99.90;;;;;;5088519;28;20075;-80
2022/06/23 08:57:36;;;;;;;8.35;4.43;;;22.70;99.90;;;;;;5088944;28;20048;-79
2022/06/23 09:00:33;;;;;;;8.60;3.65;;;22.80;99.90;;;;;;5088234;28;20490;-79
2022/06/23 09:03:07;;;;;;;5.35;4.18;;;22.80;99.90;;;;;;5074460;28;20053;-79
2022/06/23 09:05:43;;;;;;;6.47;2.85;;;23.00;99.90;;;;;;5076623;28;20067;-79
2022/06/23 09:08:32;;;;;;;9.50;3.95;;;23.20;99.90;;;;;;5084010;28;20050;-79
2022/06/23 09:11:28;;;;;;;10.23;3.53;;;23.20;99.90;;;;;;5087878;28;20059;-79
2022/06/23 09:14:02;;;;;;;8.90;4.10;;;23.20;99.90;;;;;;5081555;28;20083;-79
2022/06/23 09:16:48;;;;;;;10.90;3.70;;;23.30;99.90;;;;;;5050778;28;20051;-80
2022/06/23 09:19:22;;;;;;;18.73;5.30;;;23.20;99.90;;;;;;5073790;28;20407;-80
2022/06/23 09:21:59;;;;;;;9.98;2.78;;;23.30;99.90;;;;;;5088514;28;20043;-79
2022/06/23 09:24:54;;;;;;;8.45;4.10;;;23.30;99.90;;;;;;5087897;28;20043;-80
2022/06/23 09:27:58;;;;;;;12.45;3.28;;;23.30;99.90;;;;;;5052574;28;20411;-79
2022/06/23 09:30:42;;;;;;;6.80;2.97;;;23.40;99.90;;;;;;5069105;28;20053;-80
2022/06/23 09:33:30;;;;;;;8.32;2.63;;;23.50;99.90;;;;;;5069796;28;20055;-80
2022/06/23 09:36:11;;;;;;;24.30;4.18;;;23.40;99.90;;;;;;5058602;28;20036;-81
2022/06/23 09:39:04;;;;;;;19.45;3.70;;;23.30;99.90;;;;;;5083854;28;20032;-80
2022/06/23 09:41:37;;;;;;;21.13;4.60;;;23.20;99.90;;;;;;5054549;28;20146;-79
2022/06/23 09:44:26;;;;;;;7.75;3.17;;;23.40;99.90;;;;;;5062999;28;20049;-79
2022/06/23 09:47:20;;;;;;;8.32;3.13;;;23.40;99.90;;;;;;5056766;28;20048;-79
2022/06/23 09:50:07;;;;;;;7.88;3.63;;;23.40;99.90;;;;;;5061219;28;20052;-80
2022/06/23 09:52:53;;;;;;;4.22;3.00;;;23.50;99.90;;;;;;5056669;28;20072;-79
2022/06/23 09:55:47;;;;;;;7.88;3.65;;;23.50;99.90;;;;;;5058810;28;20427;-79
2022/06/23 09:58:55;;;;;;;12.13;3.03;;;23.70;99.90;;;;;;5064891;28;20049;-79
2022/06/23 10:01:37;;;;;;;5.65;2.75;;;23.90;99.90;;;;;;5067693;28;20376;-79
2022/06/23 10:04:10;;;;;;;5.85;2.88;;;23.90;99.90;;;;;;5053275;28;20052;-80
2022/06/23 10:07:05;;;;;;;5.00;3.55;;;24.00;99.90;;;;;;5047114;28;20052;-79
2022/06/23 10:10:06;;;;;;;11.65;4.25;;;23.90;99.90;;;;;;5047696;28;20049;-79
2022/06/23 10:13:20;;;;;;;4.38;2.97;;;23.80;99.90;;;;;;5034034;28;20063;-82
2022/06/23 10:15:51;;;;;;;5.05;2.13;;;24.00;99.90;;;;;;5047096;28;20048;-79
2022/06/23 10:18:53;;;;;;;;;;;24.20;99.90;;;;;;5056288;28;20048;-80
2022/06/23 10:21:39;;;;;;;4.43;3.20;;;24.30;99.90;;;;;;5054389;28;19936;-80
2022/06/23 10:24:11;;;;;;;22.65;3.15;;;24.50;99.90;;;;;;5055641;28;20055;-79
2022/06/23 10:26:59;;;;;;;10.60;2.65;;;24.60;99.90;;;;;;5063141;28;20055;-80
2022/06/23 10:29:59;;;;;;;9.60;3.00;;;24.50;99.90;;;;;;5034550;28;20088;-80
2022/06/23 10:32:41;;;;;;;21.93;4.17;;;24.40;99.90;;;;;;5036890;28;20055;-79
2022/06/23 10:35:36;;;;;;;3.78;2.80;;;24.20;99.90;;;;;;5062891;28;20282;-79
2022/06/23 10:38:34;;;;;;;7.22;2.65;;;24.40;99.90;;;;;;5043611;28;20427;-79
2022/06/23 10:41:35;;;;;;;6.13;2.63;;;24.40;99.90;;;;;;5043671;28;20516;-79
2022/06/23 10:44:12;;;;;;;10.52;1.88;;;24.40;99.90;;;;;;5044457;28;20063;-79
2022/06/23 10:47:14;;;;;;;12.18;4.45;;;24.40;99.90;;;;;;5046587;28;20041;-80
2022/06/23 10:50:16;;;;;;;11.57;3.67;;;24.60;99.90;;;;;;5046161;28;20045;-80
2022/06/23 10:53:31;;;;;;;19.15;4.22;;;24.60;99.90;;;;;;5044099;28;20052;-80
2022/06/23 10:56:36;;;;;;;10.53;3.63;;;24.80;99.90;;;;;;5045961;28;20075;-80
2022/06/23 10:59:24;;;;;;;7.40;3.53;;;24.90;99.90;;;;;;5028031;28;20279;-80
2022/06/23 11:02:48;;;;;;;12.55;4.05;;;24.90;99.90;;;;;;5043661;28;20300;-80
2022/06/23 11:05:53;;;;;;;3.28;3.05;;;24.90;99.90;;;;;;5046579;28;20392;-80
2022/06/23 11:08:27;;;;;;;3.88;2.40;;;24.80;99.90;;;;;;5044964;28;20508;-79
2022/06/23 11:11:30;;;;;;;4.55;2.85;;;24.80;99.90;;;;;;5045640;28;20053;-80
2022/06/23 11:14:04;;;;;;;8.48;3.15;;;24.90;99.90;;;;;;5046489;28;20055;-80
2022/06/23 11:16:59;;;;;;;8.43;3.47;;;24.90;99.90;;;;;;5043131;28;20075;-79
2022/06/23 11:19:45;;;;;;;109.45;12.05;;;25.10;99.90;;;;;;5047082;28;20052;-81
2022/06/23 11:22:39;;;;;;;8.52;2.42;;;25.10;99.90;;;;;;5045671;28;20049;-80
2022/06/23 11:25:18;;;;;;;4.30;2.20;;;25.00;99.90;;;;;;5042888;28;20396;-80
2022/06/23 11:28:04;;;;;;;6.78;2.35;;;25.00;99.90;;;;;;5045445;28;20049;-79
2022/06/23 11:30:54;;;;;;;7.03;2.78;;;25.10;99.90;;;;;;5045732;28;20690;-80
2022/06/23 11:33:41;;;;;;;7.80;3.55;;;25.20;99.90;;;;;;5045958;28;20045;-80
2022/06/23 11:36:14;;;;;;;4.70;2.75;;;25.20;99.90;;;;;;5045563;28;20049;-81
2022/06/23 11:39:09;;;;;;;8.30;2.40;;;25.20;99.90;;;;;;5062626;28;20053;-89
2022/06/23 11:41:53;;;;;;;5.22;2.38;;;25.30;99.90;;;;;;5064335;28;20053;-80
2022/06/23 11:44:24;;;;;;;15.15;4.13;;;25.20;99.90;;;;;;5065546;28;20048;-81
2022/06/23 11:47:07;;;;;;;5.32;2.95;;;25.30;99.90;;;;;;5043425;28;20049;-80
2022/06/23 11:49:54;;;;;;;7.68;2.53;;;25.40;99.90;;;;;;5028165;28;20065;-79
2022/06/23 11:52:22;;;;;;;8.82;2.55;;;25.60;99.90;;;;;;5025431;28;20052;-79
2022/06/23 11:55:34;;;;;;;5.45;2.20;;;25.70;99.90;;;;;;5026723;28;20045;-82
2022/06/23 11:58:18;;;;;;;4.93;2.00;;;25.60;99.90;;;;;;5025482;28;20049;-79
2022/06/23 12:00:58;;;;;;;4.13;2.80;;;25.50;99.90;;;;;;5026744;28;20054;-80
2022/06/23 12:03:57;;;;;;;13.98;4.03;;;25.40;99.90;;;;;;5026446;28;20049;-79
2022/06/23 12:07:07;;;;;;;13.13;3.35;;;25.40;99.90;;;;;;5024987;28;20038;-80
2022/06/23 12:10:06;;;;;;;6.07;3.13;;;25.40;99.90;;;;;;5039120;28;20766;-80
2022/06/23 12:12:51;;;;;;;9.68;2.65;;;25.40;99.90;;;;;;5029213;28;20520;-80
2022/06/23 12:15:25;;;;;;;9.13;2.63;;;25.40;99.90;;;;;;5046317;28;20500;-79
2022/06/23 12:18:08;;;;;;;4.55;2.65;;;25.50;99.90;;;;;;5045485;28;20048;-80
2022/06/23 12:21:05;;;;;;;16.83;3.88;;;25.20;99.90;;;;;;5013141;28;20412;-83
2022/06/23 12:23:40;;;;;;;9.57;3.90;;;25.00;99.90;;;;;;5032681;28;20049;-80
2022/06/23 12:26:08;;;;;;;12.75;3.05;;;25.10;99.90;;;;;;5049596;28;20052;-80
2022/06/23 12:29:03;;;;;;;3.40;2.28;;;25.30;99.90;;;;;;5049249;28;20064;-80
2022/06/23 12:31:55;;;;;;;8.30;2.90;;;25.50;99.90;;;;;;5029920;28;20052;-79
2022/06/23 12:34:47;;;;;;;6.85;3.28;;;25.60;99.90;;;;;;5029324;28;20053;-82
2022/06/23 12:37:18;;;;;;;7.60;3.85;;;25.60;99.90;;;;;;5041730;28;20067;-80
2022/06/23 12:39:51;;;;;;;;;;;25.60;99.90;;;;;;5066618;28;20048;-80
2022/06/23 12:42:28;;;;;;;9.55;3.40;;;25.40;99.90;;;;;;5076337;28;20766;-81
2022/06/23 12:45:13;;;;;;;7.95;4.18;;;25.40;99.90;;;;;;5051673;28;20061;-83
2022/06/23 12:47:59;;;;;;;7.68;3.25;;;25.40;99.90;;;;;;5068261;28;20067;-80
2022/06/23 12:50:47;;;;;;;7.35;3.58;;;25.40;99.90;;;;;;5069606;28;20041;-80
2022/06/23 12:53:18;;;;;;;18.48;3.95;;;25.20;99.90;;;;;;5069219;28;20048;-80
2022/06/23 12:56:27;;;;;;;7.30;2.60;;;25.20;99.90;;;;;;5068603;28;20544;-80
2022/06/23 12:59:14;;;;;;;10.07;3.47;;;25.30;99.90;;;;;;5047705;28;20040;-79
2022/06/23 13:02:16;;;;;;;5.95;3.55;;;25.30;99.90;;;;;;5051322;28;20087;-83
2022/06/23 13:05:06;;;;;;;9.95;3.75;;;25.30;99.90;;;;;;5053248;28;20051;-80
2022/06/23 13:07:50;;;;;;;4.72;3.65;;;25.40;99.90;;;;;;5077686;28;20054;-81
2022/06/23 13:11:03;;;;;;;14.23;3.17;;;25.50;99.90;;;;;;5059776;28;20044;-81
2022/06/23 13:13:40;;;;;;;20.38;4.18;;;25.60;99.90;;;;;;5080070;28;20558;-80
2022/06/23 13:16:22;;;;;;;9.32;4.28;;;25.60;99.90;;;;;;5082083;28;20052;-81
2022/06/23 13:19:01;;;;;;;6.25;3.03;;;25.60;99.90;;;;;;5087774;28;20047;-80
2022/06/23 13:21:34;;;;;;;7.18;2.97;;;25.60;99.90;;;;;;5068599;28;20430;-80
2022/06/23 13:24:10;;;;;;;27.05;4.57;;;25.70;99.90;;;;;;5070539;28;20478;-80
2022/06/23 13:26:44;;;;;;;5.68;3.15;;;25.60;99.90;;;;;;5088421;28;20047;-80
2022/06/23 13:29:35;;;;;;;6.72;3.28;;;25.60;99.90;;;;;;5087517;28;20059;-81
2022/06/23 13:32:24;;;;;;;6.35;2.75;;;25.70;99.90;;;;;;5085707;28;20525;-80
2022/06/23 13:35:29;;;;;;;12.65;3.50;;;25.60;99.90;;;;;;5057633;28;20048;-82
2022/06/23 13:38:09;;;;;;;8.90;2.80;;;25.60;99.90;;;;;;5057454;28;20082;-82
2022/06/23 13:40:55;;;;;;;14.07;3.43;;;25.60;99.90;;;;;;5044089;28;20496;-79
2022/06/23 13:43:45;;;;;;;10.38;4.43;;;25.70;99.90;;;;;;5047853;28;20400;-80
2022/06/23 13:46:19;;;;;;;15.63;4.55;;;25.70;99.90;;;;;;5047837;28;20057;-80
2022/06/23 13:49:09;;;;;;;5.07;3.85;;;25.70;99.90;;;;;;5047643;28;20048;-82
2022/06/23 13:52:07;;;;;;;11.25;3.13;;;25.60;99.90;;;;;;5047570;28;20053;-80
2022/06/23 13:54:56;;;;;;;14.27;4.05;;;25.70;99.90;;;;;;5047713;28;20048;-80
2022/06/23 13:57:31;;;;;;;12.57;3.78;;;25.70;99.90;;;;;;5047936;28;20053;-82
2022/06/23 14:00:41;;;;;;;5.97;3.20;;;25.70;99.90;;;;;;5047430;28;20071;-80
2022/06/23 14:03:09;;;;;;;;;;;25.90;99.90;;;;;;5026411;28;20048;-80
2022/06/23 14:05:47;;;;;;;4.40;3.33;;;25.90;99.90;;;;;;5047394;28;20469;-80
2022/06/23 14:08:22;;;;;;;7.90;3.20;;;25.90;99.90;;;;;;5046599;28;20045;-82
2022/06/23 14:11:28;;;;;;;5.03;3.50;;;25.80;99.90;;;;;;5047191;28;20044;-81
2022/06/23 14:14:12;;;;;;;22.10;3.72;;;25.80;99.90;;;;;;5004835;28;20847;-79
2022/06/23 14:16:56;;;;;;;7.80;3.85;;;25.80;99.90;;;;;;5025268;28;20579;-82
2022/06/23 14:19:50;;;;;;;5.82;3.28;;;25.90;99.90;;;;;;5032830;28;20052;-83
2022/06/23 14:22:24;;;;;;;7.75;3.35;;;26.10;99.90;;;;;;5045207;28;20052;-83
2022/06/23 14:25:11;;;;;;;9.95;3.03;;;26.10;99.90;;;;;;5046210;28;20059;-84
2022/06/23 14:27:55;;;;;;;9.05;3.50;;;26.10;99.90;;;;;;5045759;28;20048;-83
2022/06/23 14:30:40;;;;;;;9.05;3.17;;;26.20;99.90;;;;;;5042178;28;20816;-87
2022/06/23 14:33:23;;;;;;;5.10;2.55;;;26.10;99.90;;;;;;5026235;28;20049;-81
2022/06/23 14:35:57;;;;;;;13.75;3.38;;;26.10;99.90;;;;;;5025775;28;20076;-84
2022/06/23 14:38:35;;;;;;;7.03;2.72;;;26.20;99.90;;;;;;5021353;28;20487;-84
2022/06/23 14:41:21;;;;;;;8.15;3.85;;;26.10;99.90;;;;;;5029559;28;20072;-83
2022/06/23 14:43:58;;;;;;;6.50;3.63;;;26.20;99.90;;;;;;5046572;28;20056;-82
2022/06/23 14:46:26;;;;;;;7.18;3.08;;;26.20;99.90;;;;;;5045518;28;20033;-83
2022/06/23 14:49:41;;;;;;;22.48;6.00;;;26.20;99.90;;;;;;5047361;28;20070;-83
2022/06/23 14:52:37;;;;;;;11.02;3.05;;;26.20;99.90;;;;;;4983795;28;20051;-84
2022/06/23 14:55:32;;;;;;;3.47;3.17;;;26.20;99.90;;;;;;4984639;28;20061;-82
2022/06/23 14:58:32;;;;;;;8.48;3.83;;;26.20;99.90;;;;;;5041217;28;20057;-81
2022/06/23 15:01:17;;;;;;;18.13;5.10;;;26.20;99.90;;;;;;5045740;28;20483;-82
2022/06/23 15:04:09;;;;;;;4.50;2.78;;;26.20;99.90;;;;;;5011959;28;20045;-83
2022/06/23 15:06:53;;;;;;;5.15;1.88;;;26.20;99.90;;;;;;5044818;28;20044;-82
2022/06/23 15:09:43;;;;;;;11.88;2.90;;;26.30;99.90;;;;;;5047101;28;20131;-82
2022/06/23 15:12:36;;;;;;;3.15;2.55;;;26.20;99.90;;;;;;5030727;28;20052;-85
2022/06/23 15:15:29;;;;;;;3.95;2.58;;;26.30;99.90;;;;;;5046322;28;20055;-84
2022/06/23 15:18:19;;;;;;;5.25;2.65;;;26.40;99.90;;;;;;5012940;28;20053;-84
2022/06/23 15:23:09;;;;;;;7.43;2.88;;;26.30;99.90;;;;;;5024379;28;20053;-84
2022/06/23 15:24:00;;;;;;;6.47;2.80;;;26.40;99.90;;;;;;5026745;28;20081;-85
2022/06/23 15:26:41;;;;;;;7.65;3.05;;;26.50;99.90;;;;;;5024524;28;20046;-83
2022/06/23 15:29:37;;;;;;;6.05;2.72;;;26.40;99.90;;;;;;5008842;28;20050;-81
2022/06/23 15:32:33;;;;;;;4.07;2.78;;;26.40;99.90;;;;;;5024871;28;20072;-82
2022/06/23 15:35:11;;;;;;;10.02;3.38;;;26.40;99.90;;;;;;5024116;28;20753;-80
2022/06/23 15:37:56;;;;;;;12.73;2.95;;;26.40;99.90;;;;;;5035790;28;20053;-82
2022/06/23 15:40:46;;;;;;;13.57;2.75;;;26.40;99.90;;;;;;5055650;28;20056;-82
2022/06/23 15:43:26;;;;;;;4.47;3.42;;;26.40;99.90;;;;;;5067819;28;20056;-83
2022/06/23 15:46:11;;;;;;;7.20;3.40;;;26.50;99.90;;;;;;5087176;28;20048;-82
2022/06/23 15:49:11;;;;;;;6.13;2.83;;;26.50;99.90;;;;;;5050585;28;20055;-82
2022/06/23 15:51:51;;;;;;;5.88;2.70;;;26.40;99.90;;;;;;5086024;28;20048;-80
2022/06/23 15:55:08;;;;;;;;;;;;;;;;;;;;;
2022/06/23 15:57:56;;;;;;;3.60;2.95;;;26.40;99.90;;;;;;5090452;28;20048;-84
2022/06/23 16:01:18;;;;;;;11.82;2.63;;;26.40;99.90;;;;;;5047013;28;20050;-85
2022/06/23 16:03:50;;;;;;;4.63;2.97;;;26.40;99.90;;;;;;5078802;28;20526;-83
2022/06/23 16:06:34;;;;;;;6.88;3.13;;;26.40;99.90;;;;;;5051206;28;20052;-83